sensor_id;sensor_type;location;lat;lon;timestamp;P1;durP1;ratioP1;P2;durP2;ratioP2
59569;SDS011;45393;44.646;10.900;2022-07-29T00:00:42;8.70;;;4.30;;
59569;SDS011;45393;44.646;10.900;2022-07-29T00:03:11;9.60;;;4.87;;
59569;SDS011;45393;44.646;10.900;2022-07-29T00:05:38;6.70;;;4.40;;
59569;SDS011;45393;44.646;10.900;2022-07-29T00:08:04;8.20;;;4.37;;
59569;SDS011;45393;44.646;10.900;2022-07-29T00:10:30;8.93;;;5.40;;
59569;SDS011;45393;44.646;10.900;2022-07-29T00:12:57;11.77;;;6.97;;
59569;SDS011;45393;44.646;10.900;2022-07-29T00:15:23;10.23;;;7.67;;
59569;SDS011;45393;44.646;10.900;2022-07-29T00:17:49;11.53;;;7.67;;
59569;SDS011;45393;44.646;10.900;2022-07-29T00:20:15;11.63;;;7.93;;
59569;SDS011;45393;44.646;10.900;2022-07-29T00:22:41;12.50;;;8.73;;
59569;SDS011;45393;44.646;10.900;2022-07-29T00:25:07;12.17;;;9.73;;
59569;SDS011;45393;44.646;10.900;2022-07-29T00:27:34;12.23;;;10.57;;
59569;SDS011;45393;44.646;10.900;2022-07-29T00:30:00;17.77;;;11.57;;
59569;SDS011;45393;44.646;10.900;2022-07-29T00:32:27;11.10;;;9.83;;
59569;SDS011;45393;44.646;10.900;2022-07-29T00:34:53;11.50;;;9.63;;
59569;SDS011;45393;44.646;10.900;2022-07-29T00:37:38;14.47;;;12.00;;
59569;SDS011;45393;44.646;10.900;2022-07-29T00:40:04;14.90;;;11.07;;
59569;SDS011;45393;44.646;10.900;2022-07-29T00:42:30;14.77;;;11.70;;
59569;SDS011;45393;44.646;10.900;2022-07-29T00:44:56;13.37;;;10.47;;
59569;SDS011;45393;44.646;10.900;2022-07-29T00:47:22;14.80;;;10.67;;
59569;SDS011;45393;44.646;10.900;2022-07-29T00:49:48;12.37;;;10.73;;
59569;SDS011;45393;44.646;10.900;2022-07-29T00:52:14;12.83;;;9.50;;
59569;SDS011;45393;44.646;10.900;2022-07-29T00:54:40;15.03;;;11.47;;
59569;SDS011;45393;44.646;10.900;2022-07-29T00:57:07;15.63;;;10.27;;
59569;SDS011;45393;44.646;10.900;2022-07-29T00:59:33;13.57;;;9.67;;
59569;SDS011;45393;44.646;10.900;2022-07-29T01:01:59;12.53;;;8.97;;
59569;SDS011;45393;44.646;10.900;2022-07-29T01:04:25;11.17;;;9.17;;
59569;SDS011;45393;44.646;10.900;2022-07-29T01:06:52;11.27;;;9.00;;
59569;SDS011;45393;44.646;10.900;2022-07-29T01:09:19;14.37;;;8.60;;
59569;SDS011;45393;44.646;10.900;2022-07-29T01:11:45;12.60;;;8.60;;
59569;SDS011;45393;44.646;10.900;2022-07-29T01:14:13;14.70;;;7.67;;
59569;SDS011;45393;44.646;10.900;2022-07-29T01:16:42;9.77;;;6.87;;
59569;SDS011;45393;44.646;10.900;2022-07-29T01:19:22;11.70;;;6.50;;
59569;SDS011;45393;44.646;10.900;2022-07-29T01:21:55;8.07;;;6.40;;
59569;SDS011;45393;44.646;10.900;2022-07-29T01:27:16;9.00;;;5.37;;
59569;SDS011;45393;44.646;10.900;2022-07-29T01:29:46;7.23;;;5.30;;
59569;SDS011;45393;44.646;10.900;2022-07-29T01:32:15;6.23;;;5.30;;
59569;SDS011;45393;44.646;10.900;2022-07-29T01:39:42;7.33;;;4.37;;
59569;SDS011;45393;44.646;10.900;2022-07-29T01:42:14;6.97;;;4.30;;
59569;SDS011;45393;44.646;10.900;2022-07-29T01:44:43;5.50;;;4.27;;
59569;SDS011;45393;44.646;10.900;2022-07-29T01:47:12;7.80;;;4.27;;
59569;SDS011;45393;44.646;10.900;2022-07-29T01:49:41;5.87;;;4.40;;
59569;SDS011;45393;44.646;10.900;2022-07-29T01:52:11;7.23;;;4.67;;
59569;SDS011;45393;44.646;10.900;2022-07-29T01:54:40;6.93;;;5.43;;
59569;SDS011;45393;44.646;10.900;2022-07-29T01:57:14;7.87;;;6.80;;
59569;SDS011;45393;44.646;10.900;2022-07-29T01:59:42;8.67;;;6.00;;
59569;SDS011;45393;44.646;10.900;2022-07-29T02:02:09;9.53;;;6.93;;
59569;SDS011;45393;44.646;10.900;2022-07-29T02:04:37;12.90;;;8.00;;
59569;SDS011;45393;44.646;10.900;2022-07-29T02:07:05;12.80;;;9.27;;
59569;SDS011;45393;44.646;10.900;2022-07-29T02:09:33;11.27;;;8.33;;
59569;SDS011;45393;44.646;10.900;2022-07-29T02:12:00;10.60;;;8.60;;
59569;SDS011;45393;44.646;10.900;2022-07-29T02:14:28;11.70;;;9.00;;
59569;SDS011;45393;44.646;10.900;2022-07-29T02:16:57;10.70;;;8.60;;
59569;SDS011;45393;44.646;10.900;2022-07-29T02:19:24;10.67;;;8.13;;
59569;SDS011;45393;44.646;10.900;2022-07-29T02:21:52;10.93;;;8.63;;
59569;SDS011;45393;44.646;10.900;2022-07-29T02:24:18;10.63;;;7.73;;
59569;SDS011;45393;44.646;10.900;2022-07-29T02:26:45;10.20;;;8.23;;
59569;SDS011;45393;44.646;10.900;2022-07-29T02:29:13;13.63;;;8.17;;
59569;SDS011;45393;44.646;10.900;2022-07-29T02:31:40;11.70;;;7.27;;
59569;SDS011;45393;44.646;10.900;2022-07-29T02:34:08;10.53;;;7.00;;
59569;SDS011;45393;44.646;10.900;2022-07-29T02:36:34;12.50;;;7.57;;
59569;SDS011;45393;44.646;10.900;2022-07-29T02:39:01;8.13;;;6.63;;
59569;SDS011;45393;44.646;10.900;2022-07-29T02:41:29;9.83;;;7.93;;
59569;SDS011;45393;44.646;10.900;2022-07-29T02:43:58;7.60;;;6.20;;
59569;SDS011;45393;44.646;10.900;2022-07-29T02:46:27;9.47;;;6.13;;
59569;SDS011;45393;44.646;10.900;2022-07-29T02:48:57;10.80;;;6.97;;
59569;SDS011;45393;44.646;10.900;2022-07-29T02:51:46;9.83;;;6.30;;
59569;SDS011;45393;44.646;10.900;2022-07-29T02:54:11;12.20;;;7.30;;
59569;SDS011;45393;44.646;10.900;2022-07-29T02:56:40;8.17;;;6.60;;
59569;SDS011;45393;44.646;10.900;2022-07-29T02:59:09;10.33;;;6.97;;
59569;SDS011;45393;44.646;10.900;2022-07-29T03:01:35;12.50;;;7.63;;
59569;SDS011;45393;44.646;10.900;2022-07-29T03:04:04;10.73;;;7.47;;
59569;SDS011;45393;44.646;10.900;2022-07-29T03:06:30;10.80;;;7.97;;
59569;SDS011;45393;44.646;10.900;2022-07-29T03:08:59;10.63;;;8.00;;
59569;SDS011;45393;44.646;10.900;2022-07-29T03:11:26;7.90;;;6.93;;
59569;SDS011;45393;44.646;10.900;2022-07-29T03:13:52;8.63;;;7.70;;
59569;SDS011;45393;44.646;10.900;2022-07-29T03:16:19;10.03;;;7.27;;
59569;SDS011;45393;44.646;10.900;2022-07-29T03:18:46;9.03;;;6.63;;
59569;SDS011;45393;44.646;10.900;2022-07-29T03:21:12;13.23;;;7.57;;
59569;SDS011;45393;44.646;10.900;2022-07-29T03:23:42;10.13;;;6.93;;
59569;SDS011;45393;44.646;10.900;2022-07-29T03:26:10;10.67;;;7.27;;
59569;SDS011;45393;44.646;10.900;2022-07-29T03:28:36;8.20;;;6.93;;
59569;SDS011;45393;44.646;10.900;2022-07-29T03:31:02;8.90;;;6.80;;
59569;SDS011;45393;44.646;10.900;2022-07-29T03:33:28;7.40;;;6.67;;
59569;SDS011;45393;44.646;10.900;2022-07-29T03:35:55;9.30;;;6.73;;
59569;SDS011;45393;44.646;10.900;2022-07-29T03:38:21;7.47;;;6.13;;
59569;SDS011;45393;44.646;10.900;2022-07-29T03:40:51;8.97;;;6.57;;
59569;SDS011;45393;44.646;10.900;2022-07-29T03:43:18;8.53;;;7.10;;
59569;SDS011;45393;44.646;10.900;2022-07-29T03:45:47;8.43;;;7.30;;
59569;SDS011;45393;44.646;10.900;2022-07-29T03:48:15;12.63;;;8.17;;
59569;SDS011;45393;44.646;10.900;2022-07-29T03:50:42;10.43;;;8.33;;
59569;SDS011;45393;44.646;10.900;2022-07-29T03:53:08;14.17;;;8.93;;
59569;SDS011;45393;44.646;10.900;2022-07-29T03:55:40;15.50;;;11.20;;
59569;SDS011;45393;44.646;10.900;2022-07-29T03:58:07;16.10;;;12.50;;
59569;SDS011;45393;44.646;10.900;2022-07-29T04:00:36;17.03;;;12.40;;
59569;SDS011;45393;44.646;10.900;2022-07-29T04:03:03;16.80;;;12.67;;
59569;SDS011;45393;44.646;10.900;2022-07-29T04:05:30;12.60;;;10.03;;
59569;SDS011;45393;44.646;10.900;2022-07-29T04:07:56;17.03;;;12.97;;
59569;SDS011;45393;44.646;10.900;2022-07-29T04:10:22;19.83;;;12.17;;
59569;SDS011;45393;44.646;10.900;2022-07-29T04:12:48;19.43;;;13.00;;
59569;SDS011;45393;44.646;10.900;2022-07-29T04:15:14;16.80;;;12.03;;
59569;SDS011;45393;44.646;10.900;2022-07-29T04:17:40;13.80;;;11.70;;
59569;SDS011;45393;44.646;10.900;2022-07-29T04:20:07;23.30;;;14.17;;
59569;SDS011;45393;44.646;10.900;2022-07-29T04:22:33;24.07;;;14.37;;
59569;SDS011;45393;44.646;10.900;2022-07-29T04:24:59;16.60;;;11.50;;
59569;SDS011;45393;44.646;10.900;2022-07-29T04:27:25;20.90;;;13.70;;
59569;SDS011;45393;44.646;10.900;2022-07-29T04:29:51;20.43;;;13.27;;
59569;SDS011;45393;44.646;10.900;2022-07-29T04:32:17;28.13;;;15.10;;
59569;SDS011;45393;44.646;10.900;2022-07-29T04:34:43;23.67;;;14.30;;
59569;SDS011;45393;44.646;10.900;2022-07-29T04:37:11;17.30;;;14.80;;
59569;SDS011;45393;44.646;10.900;2022-07-29T04:39:37;19.40;;;13.53;;
59569;SDS011;45393;44.646;10.900;2022-07-29T04:42:03;18.40;;;15.13;;
59569;SDS011;45393;44.646;10.900;2022-07-29T04:44:30;21.63;;;14.37;;
59569;SDS011;45393;44.646;10.900;2022-07-29T04:46:56;14.83;;;12.63;;
59569;SDS011;45393;44.646;10.900;2022-07-29T04:49:22;17.30;;;13.40;;
59569;SDS011;45393;44.646;10.900;2022-07-29T04:51:49;21.13;;;15.90;;
59569;SDS011;45393;44.646;10.900;2022-07-29T04:54:15;16.47;;;14.43;;
59569;SDS011;45393;44.646;10.900;2022-07-29T04:56:41;22.80;;;15.57;;
59569;SDS011;45393;44.646;10.900;2022-07-29T04:59:07;21.77;;;17.13;;
59569;SDS011;45393;44.646;10.900;2022-07-29T05:01:33;23.40;;;18.37;;
59569;SDS011;45393;44.646;10.900;2022-07-29T05:03:59;20.30;;;17.83;;
59569;SDS011;45393;44.646;10.900;2022-07-29T05:06:26;23.37;;;18.83;;
59569;SDS011;45393;44.646;10.900;2022-07-29T05:08:52;20.30;;;17.73;;
59569;SDS011;45393;44.646;10.900;2022-07-29T05:11:18;24.93;;;18.93;;
59569;SDS011;45393;44.646;10.900;2022-07-29T05:13:44;20.93;;;17.73;;
59569;SDS011;45393;44.646;10.900;2022-07-29T05:16:10;26.83;;;19.07;;
59569;SDS011;45393;44.646;10.900;2022-07-29T05:18:36;21.77;;;18.90;;
59569;SDS011;45393;44.646;10.900;2022-07-29T05:21:02;23.27;;;17.73;;
59569;SDS011;45393;44.646;10.900;2022-07-29T05:23:28;20.37;;;16.90;;
59569;SDS011;45393;44.646;10.900;2022-07-29T05:25:54;22.50;;;18.33;;
59569;SDS011;45393;44.646;10.900;2022-07-29T05:28:20;20.30;;;16.20;;
59569;SDS011;45393;44.646;10.900;2022-07-29T05:30:46;19.97;;;17.57;;
59569;SDS011;45393;44.646;10.900;2022-07-29T05:33:13;26.63;;;17.70;;
59569;SDS011;45393;44.646;10.900;2022-07-29T05:35:39;22.57;;;18.33;;
59569;SDS011;45393;44.646;10.900;2022-07-29T05:38:05;21.80;;;17.33;;
59569;SDS011;45393;44.646;10.900;2022-07-29T05:40:31;23.70;;;18.40;;
59569;SDS011;45393;44.646;10.900;2022-07-29T05:42:57;19.87;;;16.07;;
59569;SDS011;45393;44.646;10.900;2022-07-29T05:45:23;19.27;;;16.57;;
59569;SDS011;45393;44.646;10.900;2022-07-29T05:47:49;20.30;;;15.37;;
59569;SDS011;45393;44.646;10.900;2022-07-29T05:50:15;17.47;;;15.60;;
59569;SDS011;45393;44.646;10.900;2022-07-29T05:52:41;20.83;;;17.50;;
59569;SDS011;45393;44.646;10.900;2022-07-29T05:55:08;21.13;;;17.00;;
59569;SDS011;45393;44.646;10.900;2022-07-29T05:57:34;20.03;;;16.47;;
59569;SDS011;45393;44.646;10.900;2022-07-29T06:00:00;20.43;;;17.73;;
59569;SDS011;45393;44.646;10.900;2022-07-29T06:02:26;19.83;;;17.67;;
59569;SDS011;45393;44.646;10.900;2022-07-29T06:04:52;21.30;;;16.77;;
59569;SDS011;45393;44.646;10.900;2022-07-29T06:07:18;18.63;;;16.20;;
59569;SDS011;45393;44.646;10.900;2022-07-29T06:09:44;21.63;;;16.97;;
59569;SDS011;45393;44.646;10.900;2022-07-29T06:12:11;23.37;;;18.40;;
59569;SDS011;45393;44.646;10.900;2022-07-29T06:14:37;22.70;;;18.67;;
59569;SDS011;45393;44.646;10.900;2022-07-29T06:17:03;20.50;;;15.77;;
59569;SDS011;45393;44.646;10.900;2022-07-29T06:19:30;20.97;;;17.20;;
59569;SDS011;45393;44.646;10.900;2022-07-29T06:21:56;21.03;;;17.03;;
59569;SDS011;45393;44.646;10.900;2022-07-29T06:24:22;19.83;;;17.03;;
59569;SDS011;45393;44.646;10.900;2022-07-29T06:26:48;20.50;;;16.30;;
59569;SDS011;45393;44.646;10.900;2022-07-29T06:29:14;20.47;;;15.50;;
59569;SDS011;45393;44.646;10.900;2022-07-29T06:31:40;18.07;;;15.90;;
59569;SDS011;45393;44.646;10.900;2022-07-29T06:34:07;17.03;;;15.23;;
59569;SDS011;45393;44.646;10.900;2022-07-29T06:36:36;17.23;;;14.13;;
59569;SDS011;45393;44.646;10.900;2022-07-29T06:39:06;17.47;;;14.90;;
59569;SDS011;45393;44.646;10.900;2022-07-29T06:41:33;18.50;;;14.43;;
59569;SDS011;45393;44.646;10.900;2022-07-29T06:43:59;20.47;;;15.17;;
59569;SDS011;45393;44.646;10.900;2022-07-29T06:46:25;15.33;;;13.23;;
59569;SDS011;45393;44.646;10.900;2022-07-29T06:48:52;15.07;;;12.70;;
59569;SDS011;45393;44.646;10.900;2022-07-29T06:51:18;16.93;;;13.33;;
59569;SDS011;45393;44.646;10.900;2022-07-29T06:53:44;16.13;;;12.90;;
59569;SDS011;45393;44.646;10.900;2022-07-29T06:56:11;17.43;;;13.20;;
59569;SDS011;45393;44.646;10.900;2022-07-29T06:58:38;13.53;;;12.17;;
59569;SDS011;45393;44.646;10.900;2022-07-29T07:01:05;16.57;;;12.70;;
59569;SDS011;45393;44.646;10.900;2022-07-29T07:03:32;14.57;;;12.03;;
59569;SDS011;45393;44.646;10.900;2022-07-29T07:05:58;16.10;;;12.67;;
59569;SDS011;45393;44.646;10.900;2022-07-29T07:08:25;12.50;;;11.27;;
59569;SDS011;45393;44.646;10.900;2022-07-29T07:10:51;13.93;;;12.50;;
59569;SDS011;45393;44.646;10.900;2022-07-29T07:13:18;16.73;;;12.10;;
59569;SDS011;45393;44.646;10.900;2022-07-29T07:15:44;15.17;;;12.33;;
59569;SDS011;45393;44.646;10.900;2022-07-29T07:18:12;13.47;;;12.07;;
59569;SDS011;45393;44.646;10.900;2022-07-29T07:20:39;16.43;;;13.07;;
59569;SDS011;45393;44.646;10.900;2022-07-29T07:23:05;15.97;;;11.23;;
59569;SDS011;45393;44.646;10.900;2022-07-29T07:25:31;17.80;;;11.60;;
59569;SDS011;45393;44.646;10.900;2022-07-29T07:27:57;15.03;;;11.10;;
59569;SDS011;45393;44.646;10.900;2022-07-29T07:30:23;19.70;;;12.07;;
59569;SDS011;45393;44.646;10.900;2022-07-29T07:32:50;16.27;;;12.43;;
59569;SDS011;45393;44.646;10.900;2022-07-29T07:35:16;12.70;;;10.07;;
59569;SDS011;45393;44.646;10.900;2022-07-29T07:37:42;12.57;;;8.33;;
59569;SDS011;45393;44.646;10.900;2022-07-29T07:40:09;11.53;;;9.23;;
59569;SDS011;45393;44.646;10.900;2022-07-29T07:42:36;12.40;;;9.53;;
59569;SDS011;45393;44.646;10.900;2022-07-29T07:45:03;10.77;;;7.50;;
59569;SDS011;45393;44.646;10.900;2022-07-29T07:47:30;8.83;;;6.40;;
59569;SDS011;45393;44.646;10.900;2022-07-29T07:49:57;9.00;;;6.80;;
59569;SDS011;45393;44.646;10.900;2022-07-29T07:52:23;8.47;;;6.70;;
59569;SDS011;45393;44.646;10.900;2022-07-29T07:54:49;10.20;;;7.67;;
59569;SDS011;45393;44.646;10.900;2022-07-29T07:57:15;9.17;;;6.17;;
59569;SDS011;45393;44.646;10.900;2022-07-29T07:59:42;11.37;;;7.40;;
59569;SDS011;45393;44.646;10.900;2022-07-29T08:02:08;8.63;;;6.80;;
59569;SDS011;45393;44.646;10.900;2022-07-29T08:04:35;8.27;;;6.37;;
59569;SDS011;45393;44.646;10.900;2022-07-29T08:07:01;10.93;;;8.00;;
59569;SDS011;45393;44.646;10.900;2022-07-29T08:09:28;8.93;;;7.70;;
59569;SDS011;45393;44.646;10.900;2022-07-29T08:11:54;8.87;;;7.13;;
59569;SDS011;45393;44.646;10.900;2022-07-29T08:14:20;10.60;;;7.10;;
59569;SDS011;45393;44.646;10.900;2022-07-29T08:16:46;8.47;;;6.97;;
59569;SDS011;45393;44.646;10.900;2022-07-29T08:19:12;7.83;;;7.00;;
59569;SDS011;45393;44.646;10.900;2022-07-29T08:21:38;8.60;;;6.13;;
59569;SDS011;45393;44.646;10.900;2022-07-29T08:24:05;7.30;;;6.60;;
59569;SDS011;45393;44.646;10.900;2022-07-29T08:26:49;9.60;;;6.00;;
59569;SDS011;45393;44.646;10.900;2022-07-29T08:29:16;8.63;;;6.50;;
59569;SDS011;45393;44.646;10.900;2022-07-29T08:31:42;7.87;;;5.93;;
59569;SDS011;45393;44.646;10.900;2022-07-29T08:34:08;7.43;;;6.60;;
59569;SDS011;45393;44.646;10.900;2022-07-29T08:36:34;9.23;;;7.30;;
59569;SDS011;45393;44.646;10.900;2022-07-29T08:39:01;7.87;;;6.37;;
59569;SDS011;45393;44.646;10.900;2022-07-29T08:41:27;7.30;;;6.20;;
59569;SDS011;45393;44.646;10.900;2022-07-29T08:43:54;7.93;;;6.80;;
59569;SDS011;45393;44.646;10.900;2022-07-29T08:46:20;9.90;;;8.20;;
59569;SDS011;45393;44.646;10.900;2022-07-29T08:48:46;14.10;;;9.47;;
59569;SDS011;45393;44.646;10.900;2022-07-29T08:51:13;12.67;;;9.20;;
59569;SDS011;45393;44.646;10.900;2022-07-29T08:53:41;10.23;;;8.10;;
59569;SDS011;45393;44.646;10.900;2022-07-29T08:56:11;10.83;;;9.50;;
59569;SDS011;45393;44.646;10.900;2022-07-29T08:58:38;13.03;;;9.83;;
59569;SDS011;45393;44.646;10.900;2022-07-29T09:01:05;16.23;;;11.77;;
59569;SDS011;45393;44.646;10.900;2022-07-29T09:03:32;12.67;;;9.93;;
59569;SDS011;45393;44.646;10.900;2022-07-29T09:06:00;13.33;;;9.23;;
59569;SDS011;45393;44.646;10.900;2022-07-29T09:08:27;14.33;;;10.80;;
59569;SDS011;45393;44.646;10.900;2022-07-29T09:10:54;13.60;;;10.37;;
59569;SDS011;45393;44.646;10.900;2022-07-29T09:13:23;12.33;;;9.93;;
59569;SDS011;45393;44.646;10.900;2022-07-29T09:15:50;11.70;;;8.87;;
59569;SDS011;45393;44.646;10.900;2022-07-29T09:21:15;9.97;;;7.93;;
59569;SDS011;45393;44.646;10.900;2022-07-29T09:24:05;12.67;;;10.00;;
59569;SDS011;45393;44.646;10.900;2022-07-29T09:26:32;10.23;;;9.10;;
59569;SDS011;45393;44.646;10.900;2022-07-29T09:28:58;8.03;;;7.23;;
59569;SDS011;45393;44.646;10.900;2022-07-29T09:31:35;9.17;;;6.97;;
59569;SDS011;45393;44.646;10.900;2022-07-29T09:34:01;8.93;;;6.87;;
59569;SDS011;45393;44.646;10.900;2022-07-29T09:36:28;9.40;;;7.00;;
59569;SDS011;45393;44.646;10.900;2022-07-29T09:38:57;8.47;;;6.73;;
59569;SDS011;45393;44.646;10.900;2022-07-29T09:41:24;9.70;;;6.80;;
59569;SDS011;45393;44.646;10.900;2022-07-29T09:43:57;8.17;;;6.03;;
59569;SDS011;45393;44.646;10.900;2022-07-29T09:46:26;8.50;;;5.57;;
59569;SDS011;45393;44.646;10.900;2022-07-29T09:49:08;7.53;;;6.03;;
59569;SDS011;45393;44.646;10.900;2022-07-29T09:51:34;7.67;;;6.47;;
59569;SDS011;45393;44.646;10.900;2022-07-29T09:54:01;8.70;;;6.20;;
59569;SDS011;45393;44.646;10.900;2022-07-29T09:56:41;8.80;;;6.80;;
59569;SDS011;45393;44.646;10.900;2022-07-29T09:59:08;6.57;;;5.10;;
59569;SDS011;45393;44.646;10.900;2022-07-29T10:01:37;10.57;;;6.67;;
59569;SDS011;45393;44.646;10.900;2022-07-29T10:04:03;6.63;;;5.40;;
59569;SDS011;45393;44.646;10.900;2022-07-29T10:06:29;7.27;;;5.17;;
59569;SDS011;45393;44.646;10.900;2022-07-29T10:09:06;8.10;;;7.27;;
59569;SDS011;45393;44.646;10.900;2022-07-29T10:11:33;7.60;;;6.00;;
59569;SDS011;45393;44.646;10.900;2022-07-29T10:13:59;6.80;;;5.97;;
59569;SDS011;45393;44.646;10.900;2022-07-29T10:16:27;8.00;;;5.93;;
59569;SDS011;45393;44.646;10.900;2022-07-29T10:18:57;8.30;;;6.67;;
59569;SDS011;45393;44.646;10.900;2022-07-29T10:21:24;7.83;;;6.47;;
59569;SDS011;45393;44.646;10.900;2022-07-29T10:23:52;6.20;;;5.60;;
59569;SDS011;45393;44.646;10.900;2022-07-29T10:26:19;7.83;;;5.97;;
59569;SDS011;45393;44.646;10.900;2022-07-29T10:28:45;9.87;;;6.17;;
59569;SDS011;45393;44.646;10.900;2022-07-29T10:31:40;9.77;;;5.93;;
59569;SDS011;45393;44.646;10.900;2022-07-29T10:34:13;6.03;;;5.07;;
59569;SDS011;45393;44.646;10.900;2022-07-29T10:42:09;6.57;;;4.63;;
59569;SDS011;45393;44.646;10.900;2022-07-29T10:44:39;6.23;;;4.73;;
59569;SDS011;45393;44.646;10.900;2022-07-29T10:47:05;5.07;;;4.00;;
59569;SDS011;45393;44.646;10.900;2022-07-29T10:49:32;5.17;;;4.57;;
59569;SDS011;45393;44.646;10.900;2022-07-29T10:52:02;6.50;;;4.67;;
59569;SDS011;45393;44.646;10.900;2022-07-29T10:59:37;5.97;;;4.43;;
59569;SDS011;45393;44.646;10.900;2022-07-29T11:02:03;6.33;;;4.80;;
59569;SDS011;45393;44.646;10.900;2022-07-29T11:07:18;8.73;;;5.00;;
59569;SDS011;45393;44.646;10.900;2022-07-29T11:09:48;6.20;;;4.80;;
59569;SDS011;45393;44.646;10.900;2022-07-29T11:15:03;6.70;;;4.67;;
59569;SDS011;45393;44.646;10.900;2022-07-29T11:18:02;9.83;;;4.57;;
59569;SDS011;45393;44.646;10.900;2022-07-29T11:20:32;6.30;;;4.10;;
59569;SDS011;45393;44.646;10.900;2022-07-29T11:22:59;7.57;;;4.43;;
59569;SDS011;45393;44.646;10.900;2022-07-29T11:25:26;4.37;;;3.97;;
59569;SDS011;45393;44.646;10.900;2022-07-29T11:28:07;4.13;;;3.70;;
59569;SDS011;45393;44.646;10.900;2022-07-29T11:30:47;7.90;;;4.50;;
59569;SDS011;45393;44.646;10.900;2022-07-29T11:33:27;5.70;;;4.50;;
59569;SDS011;45393;44.646;10.900;2022-07-29T11:36:09;6.87;;;4.33;;
59569;SDS011;45393;44.646;10.900;2022-07-29T11:38:36;7.40;;;4.50;;
59569;SDS011;45393;44.646;10.900;2022-07-29T11:43:57;8.57;;;4.37;;
59569;SDS011;45393;44.646;10.900;2022-07-29T11:49:08;5.93;;;4.57;;
59569;SDS011;45393;44.646;10.900;2022-07-29T11:51:38;5.43;;;4.47;;
59569;SDS011;45393;44.646;10.900;2022-07-29T11:54:04;5.53;;;4.70;;
59569;SDS011;45393;44.646;10.900;2022-07-29T11:56:31;6.77;;;4.40;;
59569;SDS011;45393;44.646;10.900;2022-07-29T11:59:04;8.50;;;4.60;;
59569;SDS011;45393;44.646;10.900;2022-07-29T12:01:31;5.47;;;4.20;;
59569;SDS011;45393;44.646;10.900;2022-07-29T12:04:04;7.13;;;4.43;;
59569;SDS011;45393;44.646;10.900;2022-07-29T12:06:31;5.33;;;4.17;;
59569;SDS011;45393;44.646;10.900;2022-07-29T12:08:57;5.13;;;4.37;;
59569;SDS011;45393;44.646;10.900;2022-07-29T12:11:23;5.27;;;3.83;;
59569;SDS011;45393;44.646;10.900;2022-07-29T12:13:50;4.37;;;3.97;;
59569;SDS011;45393;44.646;10.900;2022-07-29T12:16:17;6.53;;;4.10;;
59569;SDS011;45393;44.646;10.900;2022-07-29T12:18:54;4.80;;;3.93;;
59569;SDS011;45393;44.646;10.900;2022-07-29T12:21:20;6.73;;;3.80;;
59569;SDS011;45393;44.646;10.900;2022-07-29T12:23:52;7.20;;;3.90;;
59569;SDS011;45393;44.646;10.900;2022-07-29T12:26:19;5.87;;;4.03;;
59569;SDS011;45393;44.646;10.900;2022-07-29T12:28:45;5.63;;;3.87;;
59569;SDS011;45393;44.646;10.900;2022-07-29T12:31:15;5.00;;;3.97;;
59569;SDS011;45393;44.646;10.900;2022-07-29T12:33:41;6.97;;;4.10;;
59569;SDS011;45393;44.646;10.900;2022-07-29T12:36:08;4.77;;;3.80;;
59569;SDS011;45393;44.646;10.900;2022-07-29T12:38:34;4.87;;;4.00;;
59569;SDS011;45393;44.646;10.900;2022-07-29T12:41:00;6.53;;;4.27;;
59569;SDS011;45393;44.646;10.900;2022-07-29T12:43:27;4.40;;;3.93;;
59569;SDS011;45393;44.646;10.900;2022-07-29T12:45:54;4.47;;;3.70;;
59569;SDS011;45393;44.646;10.900;2022-07-29T12:48:36;5.37;;;3.70;;
59569;SDS011;45393;44.646;10.900;2022-07-29T12:51:03;4.37;;;3.73;;
59569;SDS011;45393;44.646;10.900;2022-07-29T12:53:30;6.50;;;3.77;;
59569;SDS011;45393;44.646;10.900;2022-07-29T12:55:57;4.00;;;3.60;;
59569;SDS011;45393;44.646;10.900;2022-07-29T12:58:30;6.57;;;3.90;;
59569;SDS011;45393;44.646;10.900;2022-07-29T13:01:00;8.30;;;3.80;;
59569;SDS011;45393;44.646;10.900;2022-07-29T13:03:27;6.00;;;3.87;;
59569;SDS011;45393;44.646;10.900;2022-07-29T13:05:53;5.93;;;3.50;;
59569;SDS011;45393;44.646;10.900;2022-07-29T13:08:19;7.73;;;4.07;;
59569;SDS011;45393;44.646;10.900;2022-07-29T13:10:45;4.70;;;3.67;;
59569;SDS011;45393;44.646;10.900;2022-07-29T13:13:12;5.70;;;3.90;;
59569;SDS011;45393;44.646;10.900;2022-07-29T13:15:40;6.13;;;3.70;;
59569;SDS011;45393;44.646;10.900;2022-07-29T13:18:26;6.93;;;3.83;;
59569;SDS011;45393;44.646;10.900;2022-07-29T13:20:53;5.77;;;3.90;;
59569;SDS011;45393;44.646;10.900;2022-07-29T13:23:19;4.07;;;3.50;;
59569;SDS011;45393;44.646;10.900;2022-07-29T13:25:45;4.63;;;3.57;;
59569;SDS011;45393;44.646;10.900;2022-07-29T13:28:11;7.67;;;3.80;;
59569;SDS011;45393;44.646;10.900;2022-07-29T13:30:39;6.47;;;3.90;;
59569;SDS011;45393;44.646;10.900;2022-07-29T13:33:06;4.90;;;3.63;;
59569;SDS011;45393;44.646;10.900;2022-07-29T13:35:32;5.27;;;3.90;;
59569;SDS011;45393;44.646;10.900;2022-07-29T13:37:58;4.80;;;3.50;;
59569;SDS011;45393;44.646;10.900;2022-07-29T13:40:24;5.30;;;3.93;;
59569;SDS011;45393;44.646;10.900;2022-07-29T13:42:50;4.37;;;3.63;;
59569;SDS011;45393;44.646;10.900;2022-07-29T13:45:17;8.67;;;3.87;;
59569;SDS011;45393;44.646;10.900;2022-07-29T13:47:43;4.93;;;3.60;;
59569;SDS011;45393;44.646;10.900;2022-07-29T13:50:09;4.43;;;3.53;;
59569;SDS011;45393;44.646;10.900;2022-07-29T13:52:36;5.30;;;3.60;;
59569;SDS011;45393;44.646;10.900;2022-07-29T13:55:03;7.10;;;3.83;;
59569;SDS011;45393;44.646;10.900;2022-07-29T13:57:29;5.07;;;3.70;;
59569;SDS011;45393;44.646;10.900;2022-07-29T13:59:55;6.30;;;3.10;;
59569;SDS011;45393;44.646;10.900;2022-07-29T14:02:22;3.87;;;3.50;;
59569;SDS011;45393;44.646;10.900;2022-07-29T14:04:48;6.13;;;3.37;;
59569;SDS011;45393;44.646;10.900;2022-07-29T14:07:14;4.50;;;3.50;;
59569;SDS011;45393;44.646;10.900;2022-07-29T14:09:41;5.23;;;3.30;;
59569;SDS011;45393;44.646;10.900;2022-07-29T14:12:07;4.70;;;3.47;;
59569;SDS011;45393;44.646;10.900;2022-07-29T14:14:33;4.17;;;3.37;;
59569;SDS011;45393;44.646;10.900;2022-07-29T14:17:01;4.37;;;3.43;;
59569;SDS011;45393;44.646;10.900;2022-07-29T14:19:28;4.53;;;3.50;;
59569;SDS011;45393;44.646;10.900;2022-07-29T14:21:54;5.93;;;3.80;;
59569;SDS011;45393;44.646;10.900;2022-07-29T14:24:20;5.30;;;3.60;;
59569;SDS011;45393;44.646;10.900;2022-07-29T14:26:46;4.43;;;3.80;;
59569;SDS011;45393;44.646;10.900;2022-07-29T14:29:12;6.43;;;3.80;;
59569;SDS011;45393;44.646;10.900;2022-07-29T14:31:38;6.33;;;3.93;;
59569;SDS011;45393;44.646;10.900;2022-07-29T14:34:04;5.13;;;3.73;;
59569;SDS011;45393;44.646;10.900;2022-07-29T14:36:30;7.27;;;3.87;;
59569;SDS011;45393;44.646;10.900;2022-07-29T14:38:56;6.00;;;3.73;;
59569;SDS011;45393;44.646;10.900;2022-07-29T14:41:22;4.57;;;3.90;;
59569;SDS011;45393;44.646;10.900;2022-07-29T14:43:48;6.63;;;4.20;;
59569;SDS011;45393;44.646;10.900;2022-07-29T14:46:14;7.23;;;3.90;;
59569;SDS011;45393;44.646;10.900;2022-07-29T14:48:41;15.47;;;5.17;;
59569;SDS011;45393;44.646;10.900;2022-07-29T14:51:07;15.67;;;5.10;;
59569;SDS011;45393;44.646;10.900;2022-07-29T14:53:33;13.17;;;5.07;;
59569;SDS011;45393;44.646;10.900;2022-07-29T14:55:59;9.63;;;4.97;;
59569;SDS011;45393;44.646;10.900;2022-07-29T14:58:26;8.20;;;5.43;;